createdAt,value
2023-01-24T00:01:12.383Z,15.65
2023-01-24T00:03:39.215Z,15.88
2023-01-24T00:06:06.577Z,14.95
2023-01-24T00:08:33.490Z,14.93
2023-01-24T00:11:08.049Z,13.70
2023-01-24T00:13:36.678Z,14.55
2023-01-24T00:16:16.569Z,14.43
2023-01-24T00:18:43.933Z,14.00
2023-01-24T00:21:18.415Z,14.15
2023-01-24T00:23:52.030Z,14.05
2023-01-24T00:26:21.037Z,15.25
2023-01-24T00:28:50.179Z,13.80
2023-01-24T00:31:17.598Z,14.30
2023-01-24T00:33:44.607Z,14.63
2023-01-24T00:36:12.530Z,12.80
2023-01-24T00:38:39.598Z,11.73
2023-01-24T00:41:06.499Z,10.60
2023-01-24T00:43:33.766Z,10.65
2023-01-24T00:46:01.368Z,12.43
2023-01-24T00:48:28.537Z,13.88
2023-01-24T00:50:55.606Z,13.55
2023-01-24T00:53:22.881Z,12.85
2023-01-24T00:55:50.118Z,13.40
2023-01-24T00:58:17.310Z,13.07
2023-01-24T01:00:44.655Z,13.73
2023-01-24T01:03:15.901Z,13.43
2023-01-24T01:05:43.814Z,13.75
2023-01-24T01:08:12.077Z,13.48
2023-01-24T01:10:39.821Z,14.38
2023-01-24T01:13:07.369Z,15.27
2023-01-24T01:15:34.529Z,14.55
2023-01-24T01:18:01.525Z,17.65
2023-01-24T01:20:28.881Z,16.58
2023-01-24T01:22:55.711Z,13.50
2023-01-24T01:25:23.014Z,14.15
2023-01-24T01:27:50.150Z,12.40
2023-01-24T01:30:17.472Z,14.75
2023-01-24T01:32:44.594Z,15.50
2023-01-24T01:35:11.549Z,14.50
2023-01-24T01:37:38.400Z,14.57
2023-01-24T01:40:06.778Z,15.77
2023-01-24T01:43:15.714Z,15.10
2023-01-24T01:45:48.061Z,14.63
2023-01-24T01:48:38.610Z,15.48
2023-01-24T01:51:26.597Z,15.90
2023-01-24T01:54:06.083Z,17.13
2023-01-24T01:56:46.692Z,17.17
2023-01-24T01:59:20.326Z,21.70
2023-01-24T02:01:50.539Z,19.48
2023-01-24T02:04:36.201Z,19.55
2023-01-24T02:07:24.656Z,19.73
2023-01-24T02:09:56.235Z,17.95
2023-01-24T02:12:25.146Z,18.60
2023-01-24T02:15:24.088Z,17.25
2023-01-24T02:17:52.267Z,16.98
2023-01-24T02:20:33.231Z,14.98
2023-01-24T02:23:52.369Z,15.20
2023-01-24T02:26:24.514Z,16.23
2023-01-24T02:29:00.645Z,17.17
2023-01-24T02:31:27.998Z,17.02
2023-01-24T02:33:55.139Z,17.83
2023-01-24T02:36:35.769Z,18.23
2023-01-24T02:39:11.575Z,17.45
2023-01-24T02:41:47.871Z,17.45
2023-01-24T02:44:23.989Z,16.42
2023-01-24T02:46:50.919Z,15.40
2023-01-24T02:49:17.957Z,14.35
2023-01-24T02:52:03.509Z,11.00
2023-01-24T02:54:30.393Z,10.93
2023-01-24T02:57:15.804Z,11.93
2023-01-24T02:59:42.648Z,12.95
2023-01-24T03:02:09.653Z,13.88
2023-01-24T03:04:36.563Z,14.15
2023-01-24T03:07:03.655Z,11.80
2023-01-24T03:09:36.841Z,11.02
2023-01-24T03:12:25.454Z,11.07
2023-01-24T03:15:10.940Z,12.25
2023-01-24T03:17:56.381Z,10.35
2023-01-24T03:20:41.895Z,10.98
2023-01-24T03:23:27.380Z,11.85
2023-01-24T03:26:17.353Z,11.18
2023-01-24T03:29:03.218Z,11.10
2023-01-24T03:31:48.862Z,11.60
2023-01-24T03:34:32.496Z,12.70
2023-01-24T03:37:03.438Z,11.52
2023-01-24T03:39:48.852Z,11.23
2023-01-24T03:42:15.704Z,11.55
2023-01-24T03:44:42.603Z,11.85
2023-01-24T03:47:09.549Z,14.27
2023-01-24T03:49:54.845Z,15.02
2023-01-24T03:52:28.715Z,15.13
2023-01-24T03:55:03.660Z,12.85
2023-01-24T03:57:30.670Z,12.95
2023-01-24T03:59:57.612Z,14.85
2023-01-24T04:02:24.608Z,14.90
2023-01-24T04:05:09.871Z,15.05
2023-01-24T04:07:36.790Z,14.13
2023-01-24T04:10:04.595Z,13.65
2023-01-24T04:12:34.269Z,15.00
2023-01-24T04:15:01.420Z,11.88
2023-01-24T04:17:28.348Z,12.13
2023-01-24T04:19:55.151Z,11.48
2023-01-24T04:22:22.076Z,12.23
2023-01-24T04:24:49.071Z,13.85
2023-01-24T04:27:16.009Z,14.25
2023-01-24T04:29:42.916Z,13.10
2023-01-24T04:32:10.265Z,13.50
2023-01-24T04:34:37.183Z,11.07
2023-01-24T04:37:04.130Z,11.32
2023-01-24T04:39:30.985Z,11.40
2023-01-24T04:41:58.021Z,11.95
2023-01-24T04:44:25.041Z,11.68
2023-01-24T04:46:51.986Z,11.02
2023-01-24T04:49:19.150Z,11.55
2023-01-24T04:51:49.487Z,11.60
2023-01-24T04:54:19.084Z,11.68
2023-01-24T04:56:47.740Z,12.27
2023-01-24T04:59:14.913Z,14.32
2023-01-24T05:01:41.928Z,14.48
2023-01-24T05:04:08.940Z,14.68
2023-01-24T05:06:36.228Z,15.07
2023-01-24T05:09:04.208Z,15.20
2023-01-24T05:11:31.265Z,15.23
2023-01-24T05:13:58.273Z,14.52
2023-01-24T05:16:25.286Z,14.23
2023-01-24T05:18:52.293Z,14.40
2023-01-24T05:21:19.888Z,14.48
2023-01-24T05:23:52.552Z,14.63
2023-01-24T05:26:22.601Z,15.85
2023-01-24T05:28:51.068Z,14.98
2023-01-24T05:31:18.835Z,15.75
2023-01-24T05:33:46.460Z,15.55
2023-01-24T05:36:20.902Z,19.40
2023-01-24T05:38:48.992Z,17.38
2023-01-24T05:41:19.343Z,18.05
2023-01-24T05:43:47.847Z,17.83
2023-01-24T05:46:21.714Z,17.48
2023-01-24T05:48:49.866Z,17.27
2023-01-24T05:51:20.482Z,17.85
2023-01-24T05:53:48.334Z,16.88
2023-01-24T05:56:18.984Z,17.27
2023-01-24T05:58:48.272Z,16.85
2023-01-24T06:01:23.379Z,17.38
2023-01-24T06:03:53.349Z,16.70
2023-01-24T06:06:24.019Z,17.27
2023-01-24T06:08:51.712Z,17.85
2023-01-24T06:11:27.046Z,16.73
2023-01-24T06:13:56.254Z,16.92
2023-01-24T06:16:26.205Z,17.60
2023-01-24T06:18:55.459Z,18.33
2023-01-24T06:21:47.084Z,18.73
2023-01-24T06:24:26.697Z,25.00
2023-01-24T06:26:54.952Z,25.65
2023-01-24T06:29:23.395Z,21.02
2023-01-24T06:32:20.323Z,18.02
2023-01-24T06:35:38.794Z,18.20
2023-01-24T06:38:15.531Z,17.80
2023-01-24T06:40:42.649Z,17.83
2023-01-24T06:43:09.929Z,18.55
2023-01-24T06:45:39.365Z,18.45
2023-01-24T06:48:06.481Z,19.40
2023-01-24T06:50:34.265Z,18.42
2023-01-24T06:53:01.146Z,16.92
2023-01-24T06:55:28.095Z,16.48
2023-01-24T06:58:00.186Z,17.10
2023-01-24T07:00:29.267Z,18.10
2023-01-24T07:03:08.018Z,18.20
2023-01-24T07:05:42.249Z,18.27
2023-01-24T07:08:09.137Z,19.23
2023-01-24T07:10:36.315Z,18.50
2023-01-24T07:13:04.666Z,20.60
2023-01-24T07:15:31.796Z,20.38
2023-01-24T07:18:09.989Z,20.10
2023-01-24T07:20:37.103Z,18.88
2023-01-24T07:23:04.603Z,21.17
2023-01-24T07:25:33.532Z,20.00
2023-01-24T07:28:00.671Z,20.48
2023-01-24T07:30:29.035Z,17.35
2023-01-24T07:32:55.923Z,20.58
2023-01-24T07:35:23.347Z,19.67
2023-01-24T07:37:50.505Z,18.92
2023-01-24T07:40:17.543Z,18.40
2023-01-24T07:42:44.379Z,20.15
2023-01-24T07:45:11.496Z,19.98
2023-01-24T07:47:38.481Z,19.75
2023-01-24T07:50:05.959Z,19.73
2023-01-24T07:52:32.911Z,19.63
2023-01-24T07:54:59.791Z,18.98
2023-01-24T07:57:26.619Z,18.35
2023-01-24T07:59:53.586Z,20.40
2023-01-24T08:02:20.504Z,21.98
2023-01-24T08:04:47.345Z,19.98
2023-01-24T08:07:19.836Z,19.85
2023-01-24T08:09:52.386Z,19.30
2023-01-24T08:12:20.806Z,19.45
2023-01-24T08:14:47.717Z,19.63
2023-01-24T08:17:14.838Z,19.95
2023-01-24T08:19:58.105Z,20.20
2023-01-24T08:22:28.690Z,20.85
2023-01-24T08:24:57.355Z,21.15
2023-01-24T08:27:24.428Z,21.73
2023-01-24T08:29:51.413Z,22.08
2023-01-24T08:32:18.368Z,23.77
2023-01-24T08:34:45.332Z,23.00
2023-01-24T08:37:12.268Z,24.85
2023-01-24T08:39:39.186Z,23.75
2023-01-24T08:42:06.272Z,25.70
2023-01-24T08:44:33.143Z,25.38
2023-01-24T08:47:00.088Z,24.10
2023-01-24T08:49:27.187Z,23.88
2023-01-24T08:51:59.851Z,24.67
2023-01-24T08:54:33.247Z,24.23
2023-01-24T08:57:00.513Z,25.10
2023-01-24T08:59:27.442Z,23.67
2023-01-24T09:01:54.413Z,23.90
2023-01-24T09:04:21.810Z,23.67
2023-01-24T09:06:48.920Z,21.83
2023-01-24T09:09:16.553Z,21.00
2023-01-24T09:11:43.437Z,20.13
2023-01-24T09:14:10.413Z,21.35
2023-01-24T09:16:37.530Z,21.35
2023-01-24T09:19:04.532Z,20.58
2023-01-24T09:21:31.592Z,18.58
2023-01-24T09:23:58.487Z,18.15
2023-01-24T09:26:25.551Z,19.25
2023-01-24T09:28:53.134Z,18.20
2023-01-24T09:31:20.249Z,16.95
2023-01-24T09:33:58.615Z,15.85
2023-01-24T09:36:26.513Z,16.13
2023-01-24T09:39:04.926Z,15.10
2023-01-24T09:42:11.138Z,15.93
2023-01-24T09:44:52.879Z,17.98
2023-01-24T09:47:36.670Z,13.85
2023-01-24T09:50:10.858Z,15.75
2023-01-24T09:52:44.869Z,15.30
2023-01-24T09:55:37.212Z,17.73
2023-01-24T09:58:40.978Z,16.63
2023-01-24T10:01:16.117Z,15.60
2023-01-24T10:03:43.815Z,16.88
2023-01-24T10:06:21.962Z,17.42
2023-01-24T10:08:58.560Z,14.48
2023-01-24T10:11:55.638Z,14.82
2023-01-24T10:14:53.825Z,15.18
2023-01-24T10:17:42.040Z,17.10
2023-01-24T10:20:32.387Z,16.65
2023-01-24T10:23:19.411Z,12.38
2023-01-24T10:25:50.387Z,12.50
2023-01-24T10:28:35.388Z,12.85
2023-01-24T10:31:28.861Z,13.13
2023-01-24T10:34:26.092Z,13.32
2023-01-24T10:37:02.219Z,13.48
2023-01-24T10:39:29.412Z,14.07
2023-01-24T10:41:56.629Z,14.95
2023-01-24T10:44:35.428Z,16.02
2023-01-24T10:47:50.354Z,15.80
2023-01-24T10:50:19.173Z,15.00
2023-01-24T10:52:49.840Z,15.80
2023-01-24T10:55:39.145Z,16.60
2023-01-24T10:58:26.190Z,14.93
2023-01-24T11:01:15.364Z,14.85
2023-01-24T11:03:42.355Z,15.10
2023-01-24T11:06:39.125Z,15.63
2023-01-24T11:09:14.146Z,15.88
2023-01-24T11:11:50.913Z,17.50
2023-01-24T11:14:23.516Z,18.38
2023-01-24T11:16:54.829Z,18.13
2023-01-24T11:19:44.020Z,16.75
2023-01-24T11:22:34.515Z,16.00
2023-01-24T11:25:04.948Z,16.40
2023-01-24T11:27:32.328Z,16.75
2023-01-24T11:30:21.723Z,18.20
2023-01-24T11:33:17.557Z,19.58
2023-01-24T11:36:01.063Z,18.55
2023-01-24T11:38:44.561Z,18.55
2023-01-24T11:41:31.448Z,19.27
2023-01-24T11:44:51.210Z,19.23
2023-01-24T11:47:29.973Z,19.83
2023-01-24T11:50:33.134Z,21.05
2023-01-24T11:53:09.261Z,22.73
2023-01-24T11:55:41.194Z,21.27
2023-01-24T11:58:20.105Z,18.02
2023-01-24T12:01:12.053Z,22.80
2023-01-24T12:03:47.894Z,21.05
2023-01-24T12:06:31.318Z,22.15
2023-01-24T12:09:26.890Z,21.85
2023-01-24T12:12:55.329Z,21.65
2023-01-24T12:16:06.985Z,21.83
2023-01-24T12:19:24.085Z,22.80
2023-01-24T12:22:02.600Z,21.23
2023-01-24T12:24:36.511Z,21.95
2023-01-24T12:27:15.802Z,22.35
2023-01-24T12:30:30.415Z,23.70
2023-01-24T12:33:32.428Z,22.88
2023-01-24T12:36:17.333Z,20.17
2023-01-24T12:38:47.724Z,20.83
2023-01-24T12:41:32.015Z,20.92
2023-01-24T12:44:34.851Z,21.20
2023-01-24T12:47:28.896Z,22.20
2023-01-24T12:50:17.390Z,21.05
2023-01-24T12:53:24.121Z,20.70
2023-01-24T12:56:14.291Z,19.60
2023-01-24T12:58:47.862Z,21.30
2023-01-24T13:01:55.047Z,21.55
2023-01-24T13:04:49.071Z,21.80
2023-01-24T13:07:25.310Z,21.48
2023-01-24T13:10:46.363Z,21.95
2023-01-24T13:13:24.187Z,21.50
2023-01-24T13:16:25.010Z,21.55
2023-01-24T13:19:13.075Z,21.67
2023-01-24T13:22:30.074Z,19.63
2023-01-24T13:25:23.018Z,20.63
2023-01-24T13:28:04.398Z,20.40
2023-01-24T13:31:06.771Z,21.13
2023-01-24T13:33:53.398Z,23.45
2023-01-24T13:36:26.641Z,23.02
2023-01-24T13:38:53.981Z,21.80
2023-01-24T13:41:26.867Z,22.88
2023-01-24T13:47:00.412Z,21.55
2023-01-24T13:49:30.300Z,21.00
2023-01-24T13:51:59.399Z,23.45
2023-01-24T13:54:44.789Z,22.55
2023-01-24T13:57:23.903Z,22.60
2023-01-24T14:00:16.729Z,24.40
2023-01-24T14:03:05.543Z,23.73
2023-01-24T14:06:04.717Z,24.02
2023-01-24T14:08:31.600Z,21.20
2023-01-24T14:11:07.104Z,21.13
2023-01-24T14:13:49.093Z,21.13
2023-01-24T14:16:25.200Z,21.25
2023-01-24T14:19:13.026Z,21.33
2023-01-24T14:22:09.559Z,20.92
2023-01-24T14:24:52.653Z,21.35
2023-01-24T14:30:13.988Z,20.95
2023-01-24T14:33:00.481Z,21.05
2023-01-24T14:35:57.790Z,23.58
2023-01-24T14:38:24.664Z,24.85
2023-01-24T14:40:56.326Z,26.02
2023-01-24T14:43:40.037Z,27.60
2023-01-24T14:46:22.516Z,24.80
2023-01-24T14:48:49.530Z,21.33
2023-01-24T14:51:22.921Z,23.40
2023-01-24T14:53:55.917Z,23.08
2023-01-24T14:56:23.438Z,25.63
2023-01-24T14:58:53.028Z,24.58
2023-01-24T15:01:34.349Z,23.70
2023-01-24T15:04:01.621Z,24.10
2023-01-24T15:06:29.813Z,22.33
2023-01-24T15:09:00.988Z,22.48
2023-01-24T15:11:35.347Z,58.17
2023-01-24T15:14:07.513Z,40.28
2023-01-24T15:16:52.201Z,44.95
2023-01-24T15:19:27.914Z,46.83
2023-01-24T15:21:56.779Z,28.10
2023-01-24T15:24:26.492Z,22.73
2023-01-24T15:26:55.671Z,31.80
2023-01-24T15:30:12.522Z,35.00
2023-01-24T15:32:45.036Z,22.80
2023-01-24T15:35:24.572Z,18.80
2023-01-24T15:38:06.449Z,19.48
2023-01-24T15:40:37.544Z,20.60
2023-01-24T15:43:23.317Z,19.65
2023-01-24T15:46:12.979Z,20.10
2023-01-24T15:48:40.001Z,17.80
2023-01-24T15:51:36.577Z,16.77
2023-01-24T15:54:15.001Z,16.42
2023-01-24T15:56:52.372Z,18.42
2023-01-24T15:59:23.255Z,17.70
2023-01-24T16:01:50.550Z,18.00
2023-01-24T16:04:21.195Z,18.40
2023-01-24T16:06:48.146Z,18.02
2023-01-24T16:09:15.293Z,18.23
2023-01-24T16:11:45.831Z,19.25
2023-01-24T16:14:22.878Z,18.30
2023-01-24T16:17:00.243Z,18.20
2023-01-24T16:19:27.298Z,17.98
2023-01-24T16:21:55.180Z,18.88
2023-01-24T16:24:22.165Z,18.67
2023-01-24T16:26:53.211Z,19.70
2023-01-24T16:29:30.524Z,18.33
2023-01-24T16:31:57.663Z,18.52
2023-01-24T16:34:25.684Z,19.38
2023-01-24T16:36:52.704Z,20.13
2023-01-24T16:39:23.768Z,19.48
2023-01-24T16:41:52.457Z,20.50
2023-01-24T16:44:19.727Z,17.75
2023-01-24T16:46:52.140Z,18.90
2023-01-24T16:49:19.090Z,18.10
2023-01-24T16:51:47.951Z,19.17
2023-01-24T16:54:16.066Z,19.02
2023-01-24T16:56:46.318Z,20.52
2023-01-24T16:59:14.138Z,19.20
2023-01-24T17:01:41.829Z,16.40
2023-01-24T17:04:18.402Z,19.40
2023-01-24T17:06:56.272Z,19.42
2023-01-24T17:09:23.606Z,26.65
2023-01-24T17:12:01.893Z,24.42
2023-01-24T17:14:36.713Z,23.88
2023-01-24T17:17:03.735Z,18.25
2023-01-24T17:19:32.070Z,21.15
2023-01-24T17:22:00.660Z,27.10
2023-01-24T17:24:27.643Z,49.70
2023-01-24T17:26:54.681Z,17.50
2023-01-24T17:29:26.746Z,13.82
2023-01-24T17:31:54.511Z,14.97
2023-01-24T17:34:22.329Z,15.38
2023-01-24T17:36:49.666Z,15.88
2023-01-24T17:39:16.635Z,16.73
2023-01-24T17:41:44.882Z,14.85
2023-01-24T17:44:13.291Z,24.33
2023-01-24T17:46:40.504Z,32.28
2023-01-24T17:49:10.056Z,21.45
2023-01-24T17:51:37.327Z,25.15
2023-01-24T17:54:05.723Z,32.55
2023-01-24T17:56:33.143Z,29.33
2023-01-24T17:59:01.059Z,51.58
2023-01-24T18:01:28.365Z,34.47
2023-01-24T18:03:56.343Z,14.20
2023-01-24T18:06:24.528Z,16.15
2023-01-24T18:08:52.061Z,18.00
2023-01-24T18:11:29.360Z,16.17
2023-01-24T18:13:57.243Z,14.55
2023-01-24T18:16:24.453Z,15.60
2023-01-24T18:18:51.503Z,14.57
2023-01-24T18:21:23.075Z,15.00
2023-01-24T18:23:56.063Z,13.45
2023-01-24T18:26:25.096Z,14.30
2023-01-24T18:28:52.331Z,14.05
2023-01-24T18:31:20.317Z,14.35
2023-01-24T18:33:47.402Z,14.05
2023-01-24T18:36:19.868Z,15.35
2023-01-24T18:38:47.597Z,13.65
2023-01-24T18:41:15.002Z,19.77
2023-01-24T18:43:42.549Z,21.35
2023-01-24T18:46:13.560Z,22.42
2023-01-24T18:48:43.701Z,17.15
2023-01-24T18:51:15.453Z,14.80
2023-01-24T18:53:44.308Z,17.23
2023-01-24T18:56:12.107Z,16.33
2023-01-24T18:58:39.753Z,15.38
2023-01-24T19:01:17.173Z,14.98
2023-01-24T19:03:44.471Z,14.98
2023-01-24T19:06:13.999Z,20.90
2023-01-24T19:09:00.586Z,16.33
2023-01-24T19:11:31.945Z,16.05
2023-01-24T19:14:02.558Z,15.18
2023-01-24T19:16:47.378Z,16.40
2023-01-24T19:19:18.890Z,25.02
2023-01-24T19:21:47.781Z,20.50
2023-01-24T19:24:14.871Z,21.90
2023-01-24T19:26:41.928Z,19.15
2023-01-24T19:29:10.787Z,20.33
2023-01-24T19:31:38.265Z,17.17
2023-01-24T19:34:05.639Z,16.35
2023-01-24T19:36:33.505Z,15.15
2023-01-24T19:39:01.557Z,14.93
2023-01-24T19:41:29.381Z,17.02
2023-01-24T19:46:48.152Z,13.80
2023-01-24T19:49:15.897Z,13.25
2023-01-24T19:51:42.747Z,14.68
2023-01-24T19:54:09.611Z,14.65
2023-01-24T19:56:37.640Z,13.43
2023-01-24T19:59:05.625Z,13.85
2023-01-24T20:01:33.350Z,14.45
2023-01-24T20:04:21.527Z,15.02
2023-01-24T20:06:47.751Z,13.68
2023-01-24T20:09:14.841Z,15.35
2023-01-24T20:11:41.903Z,14.10
2023-01-24T20:14:08.919Z,15.43
2023-01-24T20:16:36.037Z,14.82
2023-01-24T20:19:04.012Z,15.57
2023-01-24T20:21:34.296Z,14.43
2023-01-24T20:24:04.685Z,16.90
2023-01-24T20:26:33.103Z,15.77
2023-01-24T20:29:09.032Z,17.23
2023-01-24T20:31:36.074Z,15.95
2023-01-24T20:34:03.026Z,16.05
2023-01-24T20:36:30.922Z,15.90
2023-01-24T20:38:57.914Z,16.77
2023-01-24T20:41:25.110Z,14.77
2023-01-24T20:43:57.472Z,19.23
2023-01-24T20:46:31.939Z,22.05
2023-01-24T20:49:01.789Z,12.73
2023-01-24T20:51:29.865Z,13.45
2023-01-24T20:53:59.509Z,16.88
2023-01-24T20:56:27.882Z,16.73
2023-01-24T20:58:58.084Z,15.30
2023-01-24T21:01:27.980Z,13.32
2023-01-24T21:04:03.606Z,14.18
2023-01-24T21:06:35.480Z,13.65
2023-01-24T21:09:04.204Z,11.07
2023-01-24T21:11:33.269Z,14.88
2023-01-24T21:14:04.032Z,14.93
2023-01-24T21:16:34.725Z,14.32
2023-01-24T21:19:05.646Z,12.80
2023-01-24T21:21:37.546Z,15.38
2023-01-24T21:24:11.387Z,22.27
2023-01-24T21:26:40.358Z,17.83
2023-01-24T21:29:07.915Z,22.83
2023-01-24T21:31:35.353Z,15.35
2023-01-24T21:34:02.660Z,17.75
2023-01-24T21:36:34.947Z,14.43
2023-01-24T21:39:07.383Z,13.80
2023-01-24T21:41:53.124Z,12.95
2023-01-24T21:44:20.638Z,12.98
2023-01-24T21:46:48.004Z,24.98
2023-01-24T21:49:15.511Z,37.15
2023-01-24T21:51:43.731Z,16.75
2023-01-24T21:54:21.422Z,27.20
2023-01-24T21:57:24.010Z,21.45
2023-01-24T22:00:01.220Z,13.48
2023-01-24T22:02:32.348Z,13.70
2023-01-24T22:05:00.768Z,14.95
2023-01-24T22:07:30.795Z,14.55
2023-01-24T22:10:00.455Z,13.88
2023-01-24T22:12:29.133Z,13.43
2023-01-24T22:14:56.538Z,13.73
2023-01-24T22:17:24.660Z,16.42
2023-01-24T22:19:58.607Z,43.33
2023-01-24T22:23:09.205Z,17.65
2023-01-24T22:25:51.965Z,13.48
2023-01-24T22:28:21.748Z,13.18
2023-01-24T22:30:49.509Z,13.00
2023-01-24T22:33:17.748Z,14.05
2023-01-24T22:35:48.459Z,13.68
2023-01-24T22:38:15.340Z,13.52
2023-01-24T22:40:42.743Z,13.38
2023-01-24T22:43:09.764Z,13.25
2023-01-24T22:45:36.740Z,13.18
2023-01-24T22:48:15.585Z,13.38
2023-01-24T22:50:44.415Z,13.63
2023-01-24T22:53:12.156Z,14.07
2023-01-24T22:55:40.798Z,14.18
2023-01-24T22:58:07.822Z,14.35
2023-01-24T23:00:34.974Z,22.42
2023-01-24T23:03:01.841Z,15.75
2023-01-24T23:05:28.793Z,14.68
2023-01-24T23:07:55.976Z,14.40
2023-01-24T23:10:22.976Z,14.55
2023-01-24T23:13:08.399Z,14.35
2023-01-24T23:15:53.649Z,14.65
2023-01-24T23:19:00.121Z,15.45
2023-01-24T23:21:33.662Z,15.25
2023-01-24T23:24:01.299Z,16.63
2023-01-24T23:26:29.652Z,15.52
2023-01-24T23:29:11.787Z,16.02
2023-01-24T23:31:38.822Z,11.25
2023-01-24T23:34:07.498Z,15.40
2023-01-24T23:36:36.386Z,16.20
2023-01-24T23:39:03.401Z,15.82
2023-01-24T23:41:30.307Z,15.60
2023-01-24T23:43:57.179Z,15.65
2023-01-24T23:46:24.089Z,15.88
2023-01-24T23:48:51.046Z,15.77
2023-01-24T23:51:17.882Z,16.05
2023-01-24T23:53:45.905Z,15.95
2023-01-24T23:56:12.874Z,15.90
2023-01-24T23:58:39.763Z,15.85
